sensor_id;sensor_type;location;lat;lon;timestamp;temperature;humidity
29431;DHT22;16404;49.902;10.074;2023-07-09T00:01:29;25.60;43.10
29431;DHT22;16404;49.902;10.074;2023-07-09T00:04:14;25.60;43.30
29431;DHT22;16404;49.902;10.074;2023-07-09T00:07:01;25.50;43.40
29431;DHT22;16404;49.902;10.074;2023-07-09T00:09:46;25.30;43.40
29431;DHT22;16404;49.902;10.074;2023-07-09T00:12:30;25.20;43.50
29431;DHT22;16404;49.902;10.074;2023-07-09T00:15:15;25.10;43.50
29431;DHT22;16404;49.902;10.074;2023-07-09T00:18:00;25.00;43.60
29431;DHT22;16404;49.902;10.074;2023-07-09T00:20:45;25.00;44.00
29431;DHT22;16404;49.902;10.074;2023-07-09T00:23:32;24.90;44.30
29431;DHT22;16404;49.902;10.074;2023-07-09T00:26:17;24.90;44.30
29431;DHT22;16404;49.902;10.074;2023-07-09T00:29:04;24.90;43.50
29431;DHT22;16404;49.902;10.074;2023-07-09T00:31:49;24.80;42.40
29431;DHT22;16404;49.902;10.074;2023-07-09T00:34:33;24.80;42.20
29431;DHT22;16404;49.902;10.074;2023-07-09T00:37:20;24.70;41.80
29431;DHT22;16404;49.902;10.074;2023-07-09T00:40:09;24.60;43.50
29431;DHT22;16404;49.902;10.074;2023-07-09T00:42:55;24.60;44.00
29431;DHT22;16404;49.902;10.074;2023-07-09T00:45:40;24.60;42.90
29431;DHT22;16404;49.902;10.074;2023-07-09T00:48:24;24.60;44.00
29431;DHT22;16404;49.902;10.074;2023-07-09T00:51:13;24.60;45.00
29431;DHT22;16404;49.902;10.074;2023-07-09T00:53:59;24.70;45.60
29431;DHT22;16404;49.902;10.074;2023-07-09T00:56:46;24.60;46.10
29431;DHT22;16404;49.902;10.074;2023-07-09T00:59:35;24.50;45.60
29431;DHT22;16404;49.902;10.074;2023-07-09T01:02:21;24.40;46.00
29431;DHT22;16404;49.902;10.074;2023-07-09T01:05:08;24.40;46.30
29431;DHT22;16404;49.902;10.074;2023-07-09T01:07:54;24.40;46.50
29431;DHT22;16404;49.902;10.074;2023-07-09T01:10:39;24.40;46.50
29431;DHT22;16404;49.902;10.074;2023-07-09T01:13:24;24.30;46.80
29431;DHT22;16404;49.902;10.074;2023-07-09T01:16:10;24.10;47.30
29431;DHT22;16404;49.902;10.074;2023-07-09T01:18:54;24.10;47.00
29431;DHT22;16404;49.902;10.074;2023-07-09T01:21:39;24.00;47.60
29431;DHT22;16404;49.902;10.074;2023-07-09T01:24:57;23.90;47.80
29431;DHT22;16404;49.902;10.074;2023-07-09T01:27:47;23.80;48.30
29431;DHT22;16404;49.902;10.074;2023-07-09T01:30:36;23.90;48.00
29431;DHT22;16404;49.902;10.074;2023-07-09T01:33:22;23.80;48.00
29431;DHT22;16404;49.902;10.074;2023-07-09T01:36:08;23.80;48.00
29431;DHT22;16404;49.902;10.074;2023-07-09T01:38:53;23.80;47.50
29431;DHT22;16404;49.902;10.074;2023-07-09T01:41:40;23.90;47.30
29431;DHT22;16404;49.902;10.074;2023-07-09T01:44:24;23.80;47.10
29431;DHT22;16404;49.902;10.074;2023-07-09T01:47:13;23.80;46.40
29431;DHT22;16404;49.902;10.074;2023-07-09T01:49:58;23.70;46.40
29431;DHT22;16404;49.902;10.074;2023-07-09T01:52:46;23.70;47.10
29431;DHT22;16404;49.902;10.074;2023-07-09T01:55:30;23.60;46.80
29431;DHT22;16404;49.902;10.074;2023-07-09T01:58:16;23.50;46.40
29431;DHT22;16404;49.902;10.074;2023-07-09T02:01:01;23.40;46.80
29431;DHT22;16404;49.902;10.074;2023-07-09T02:03:45;23.50;46.70
29431;DHT22;16404;49.902;10.074;2023-07-09T02:06:30;23.40;46.20
29431;DHT22;16404;49.902;10.074;2023-07-09T02:09:17;23.40;47.00
29431;DHT22;16404;49.902;10.074;2023-07-09T02:12:01;23.30;47.40
29431;DHT22;16404;49.902;10.074;2023-07-09T02:14:48;23.30;47.70
29431;DHT22;16404;49.902;10.074;2023-07-09T02:17:32;23.30;48.20
29431;DHT22;16404;49.902;10.074;2023-07-09T02:20:17;23.20;48.00
29431;DHT22;16404;49.902;10.074;2023-07-09T02:23:03;23.20;47.70
29431;DHT22;16404;49.902;10.074;2023-07-09T02:25:48;23.10;47.80
29431;DHT22;16404;49.902;10.074;2023-07-09T02:28:33;23.10;47.10
29431;DHT22;16404;49.902;10.074;2023-07-09T02:31:17;23.10;47.00
29431;DHT22;16404;49.902;10.074;2023-07-09T02:34:03;23.10;47.50
29431;DHT22;16404;49.902;10.074;2023-07-09T02:36:48;23.10;47.60
29431;DHT22;16404;49.902;10.074;2023-07-09T02:39:32;23.00;47.20
29431;DHT22;16404;49.902;10.074;2023-07-09T02:42:20;23.00;47.80
29431;DHT22;16404;49.902;10.074;2023-07-09T02:45:06;22.90;47.90
29431;DHT22;16404;49.902;10.074;2023-07-09T02:47:51;22.90;48.50
29431;DHT22;16404;49.902;10.074;2023-07-09T02:50:36;22.90;48.70
29431;DHT22;16404;49.902;10.074;2023-07-09T02:53:21;23.00;48.60
29431;DHT22;16404;49.902;10.074;2023-07-09T02:56:05;22.90;48.50
29431;DHT22;16404;49.902;10.074;2023-07-09T02:58:50;22.90;48.00
29431;DHT22;16404;49.902;10.074;2023-07-09T03:01:35;22.90;46.80
29431;DHT22;16404;49.902;10.074;2023-07-09T03:04:20;22.80;47.40
29431;DHT22;16404;49.902;10.074;2023-07-09T03:07:05;22.70;47.50
29431;DHT22;16404;49.902;10.074;2023-07-09T03:09:49;22.70;48.40
29431;DHT22;16404;49.902;10.074;2023-07-09T03:12:34;22.70;48.90
29431;DHT22;16404;49.902;10.074;2023-07-09T03:15:18;22.60;48.00
29431;DHT22;16404;49.902;10.074;2023-07-09T03:18:03;22.50;47.90
29431;DHT22;16404;49.902;10.074;2023-07-09T03:20:47;22.50;47.60
29431;DHT22;16404;49.902;10.074;2023-07-09T03:23:32;22.50;47.70
29431;DHT22;16404;49.902;10.074;2023-07-09T03:26:17;22.40;46.60
29431;DHT22;16404;49.902;10.074;2023-07-09T03:29:01;22.40;46.50
29431;DHT22;16404;49.902;10.074;2023-07-09T03:31:46;22.40;48.00
29431;DHT22;16404;49.902;10.074;2023-07-09T03:34:30;22.40;48.00
29431;DHT22;16404;49.902;10.074;2023-07-09T03:37:15;22.40;47.50
29431;DHT22;16404;49.902;10.074;2023-07-09T03:39:59;22.40;48.00
29431;DHT22;16404;49.902;10.074;2023-07-09T03:42:44;22.40;47.90
29431;DHT22;16404;49.902;10.074;2023-07-09T03:45:29;22.40;48.60
29431;DHT22;16404;49.902;10.074;2023-07-09T03:48:15;22.30;49.10
29431;DHT22;16404;49.902;10.074;2023-07-09T03:51:00;22.40;49.70
29431;DHT22;16404;49.902;10.074;2023-07-09T03:53:44;22.40;49.90
29431;DHT22;16404;49.902;10.074;2023-07-09T03:56:29;22.40;49.50
29431;DHT22;16404;49.902;10.074;2023-07-09T03:59:13;22.30;49.30
29431;DHT22;16404;49.902;10.074;2023-07-09T04:01:58;22.40;49.60
29431;DHT22;16404;49.902;10.074;2023-07-09T04:04:43;22.50;49.90
29431;DHT22;16404;49.902;10.074;2023-07-09T04:07:27;22.50;49.80
29431;DHT22;16404;49.902;10.074;2023-07-09T04:10:14;22.50;49.80
29431;DHT22;16404;49.902;10.074;2023-07-09T04:12:58;22.40;49.80
29431;DHT22;16404;49.902;10.074;2023-07-09T04:15:44;22.40;49.20
29431;DHT22;16404;49.902;10.074;2023-07-09T04:18:28;22.40;49.80
29431;DHT22;16404;49.902;10.074;2023-07-09T04:21:13;22.40;50.30
29431;DHT22;16404;49.902;10.074;2023-07-09T04:23:57;22.40;50.50
29431;DHT22;16404;49.902;10.074;2023-07-09T04:26:42;22.40;50.70
29431;DHT22;16404;49.902;10.074;2023-07-09T04:29:26;22.40;50.80
29431;DHT22;16404;49.902;10.074;2023-07-09T04:32:13;22.50;51.00
29431;DHT22;16404;49.902;10.074;2023-07-09T04:34:58;22.50;51.00
29431;DHT22;16404;49.902;10.074;2023-07-09T04:37:43;22.70;50.90
29431;DHT22;16404;49.902;10.074;2023-07-09T04:40:27;22.80;50.90
29431;DHT22;16404;49.902;10.074;2023-07-09T04:43:12;22.90;50.60
29431;DHT22;16404;49.902;10.074;2023-07-09T04:45:57;23.10;50.40
29431;DHT22;16404;49.902;10.074;2023-07-09T04:48:41;23.30;50.20
29431;DHT22;16404;49.902;10.074;2023-07-09T04:51:26;23.50;50.00
29431;DHT22;16404;49.902;10.074;2023-07-09T04:54:11;23.70;50.20
29431;DHT22;16404;49.902;10.074;2023-07-09T04:56:58;23.90;49.30
29431;DHT22;16404;49.902;10.074;2023-07-09T04:59:42;24.10;49.50
29431;DHT22;16404;49.902;10.074;2023-07-09T05:02:27;24.40;48.50
29431;DHT22;16404;49.902;10.074;2023-07-09T05:05:12;24.60;48.10
29431;DHT22;16404;49.902;10.074;2023-07-09T05:07:56;24.90;47.60
29431;DHT22;16404;49.902;10.074;2023-07-09T05:10:45;25.10;47.20
29431;DHT22;16404;49.902;10.074;2023-07-09T05:13:30;25.20;46.90
29431;DHT22;16404;49.902;10.074;2023-07-09T05:16:14;25.50;46.50
29431;DHT22;16404;49.902;10.074;2023-07-09T05:18:59;25.70;46.50
29431;DHT22;16404;49.902;10.074;2023-07-09T05:21:43;25.90;47.10
29431;DHT22;16404;49.902;10.074;2023-07-09T05:24:28;26.20;46.20
29431;DHT22;16404;49.902;10.074;2023-07-09T05:27:13;26.40;45.60
29431;DHT22;16404;49.902;10.074;2023-07-09T05:29:57;26.60;45.10
29431;DHT22;16404;49.902;10.074;2023-07-09T05:32:42;26.90;44.50
29431;DHT22;16404;49.902;10.074;2023-07-09T05:35:27;27.10;43.90
29431;DHT22;16404;49.902;10.074;2023-07-09T05:38:12;27.30;43.40
29431;DHT22;16404;49.902;10.074;2023-07-09T05:41:02;27.60;43.10
29431;DHT22;16404;49.902;10.074;2023-07-09T05:43:50;27.80;42.10
29431;DHT22;16404;49.902;10.074;2023-07-09T05:46:36;28.10;41.80
29431;DHT22;16404;49.902;10.074;2023-07-09T05:49:21;28.30;41.40
29431;DHT22;16404;49.902;10.074;2023-07-09T05:52:06;28.40;41.30
29431;DHT22;16404;49.902;10.074;2023-07-09T05:54:51;28.60;41.10
29431;DHT22;16404;49.902;10.074;2023-07-09T05:57:35;28.80;40.70
29431;DHT22;16404;49.902;10.074;2023-07-09T06:00:20;29.00;40.20
29431;DHT22;16404;49.902;10.074;2023-07-09T06:03:04;29.20;39.50
29431;DHT22;16404;49.902;10.074;2023-07-09T06:05:51;29.40;39.10
29431;DHT22;16404;49.902;10.074;2023-07-09T06:08:36;29.60;38.50
29431;DHT22;16404;49.902;10.074;2023-07-09T06:11:21;29.80;38.00
29431;DHT22;16404;49.902;10.074;2023-07-09T06:14:05;29.90;38.40
29431;DHT22;16404;49.902;10.074;2023-07-09T06:16:50;30.10;38.00
29431;DHT22;16404;49.902;10.074;2023-07-09T06:19:34;30.20;37.80
29431;DHT22;16404;49.902;10.074;2023-07-09T06:22:19;30.40;37.50
29431;DHT22;16404;49.902;10.074;2023-07-09T06:25:03;30.60;37.40
29431;DHT22;16404;49.902;10.074;2023-07-09T06:27:48;30.80;37.60
29431;DHT22;16404;49.902;10.074;2023-07-09T06:30:33;30.90;36.30
29431;DHT22;16404;49.902;10.074;2023-07-09T06:33:18;31.10;36.30
29431;DHT22;16404;49.902;10.074;2023-07-09T06:36:03;31.30;36.50
29431;DHT22;16404;49.902;10.074;2023-07-09T06:38:48;31.40;36.30
29431;DHT22;16404;49.902;10.074;2023-07-09T06:41:33;31.50;35.80
29431;DHT22;16404;49.902;10.074;2023-07-09T06:44:23;31.60;35.60
29431;DHT22;16404;49.902;10.074;2023-07-09T06:47:09;31.80;35.10
29431;DHT22;16404;49.902;10.074;2023-07-09T06:49:56;31.90;34.50
29431;DHT22;16404;49.902;10.074;2023-07-09T06:52:40;32.00;34.80
29431;DHT22;16404;49.902;10.074;2023-07-09T06:55:25;32.10;34.40
29431;DHT22;16404;49.902;10.074;2023-07-09T06:58:09;32.30;34.20
29431;DHT22;16404;49.902;10.074;2023-07-09T07:00:55;32.50;33.60
29431;DHT22;16404;49.902;10.074;2023-07-09T07:03:39;32.70;33.30
29431;DHT22;16404;49.902;10.074;2023-07-09T07:06:24;32.80;33.00
29431;DHT22;16404;49.902;10.074;2023-07-09T07:09:08;33.00;33.20
29431;DHT22;16404;49.902;10.074;2023-07-09T07:11:53;33.10;33.00
29431;DHT22;16404;49.902;10.074;2023-07-09T07:14:37;33.40;32.90
29431;DHT22;16404;49.902;10.074;2023-07-09T07:17:22;33.50;33.00
29431;DHT22;16404;49.902;10.074;2023-07-09T07:20:08;33.70;32.60
29431;DHT22;16404;49.902;10.074;2023-07-09T07:22:53;33.80;31.70
29431;DHT22;16404;49.902;10.074;2023-07-09T07:25:38;34.00;31.50
29431;DHT22;16404;49.902;10.074;2023-07-09T07:28:28;34.20;31.20
29431;DHT22;16404;49.902;10.074;2023-07-09T07:31:13;34.30;30.70
29431;DHT22;16404;49.902;10.074;2023-07-09T07:33:58;34.40;30.10
29431;DHT22;16404;49.902;10.074;2023-07-09T07:36:43;34.60;29.40
29431;DHT22;16404;49.902;10.074;2023-07-09T07:39:27;34.70;29.40
29431;DHT22;16404;49.902;10.074;2023-07-09T07:42:12;34.80;29.50
29431;DHT22;16404;49.902;10.074;2023-07-09T07:44:56;34.90;29.60
29431;DHT22;16404;49.902;10.074;2023-07-09T07:47:41;35.10;29.50
29431;DHT22;16404;49.902;10.074;2023-07-09T07:50:26;35.20;28.60
29431;DHT22;16404;49.902;10.074;2023-07-09T07:53:11;35.40;28.60
29431;DHT22;16404;49.902;10.074;2023-07-09T07:55:57;35.60;28.50
29431;DHT22;16404;49.902;10.074;2023-07-09T07:58:41;35.70;28.60
29431;DHT22;16404;49.902;10.074;2023-07-09T08:01:26;35.80;28.40
29431;DHT22;16404;49.902;10.074;2023-07-09T08:04:10;35.90;28.30
29431;DHT22;16404;49.902;10.074;2023-07-09T08:06:54;36.10;28.50
29431;DHT22;16404;49.902;10.074;2023-07-09T08:09:39;36.30;28.40
29431;DHT22;16404;49.902;10.074;2023-07-09T08:12:24;36.50;28.20
29431;DHT22;16404;49.902;10.074;2023-07-09T08:15:08;36.80;28.30
29431;DHT22;16404;49.902;10.074;2023-07-09T08:17:53;36.90;27.60
29431;DHT22;16404;49.902;10.074;2023-07-09T08:20:38;37.10;27.30
29431;DHT22;16404;49.902;10.074;2023-07-09T08:23:26;37.20;27.60
29431;DHT22;16404;49.902;10.074;2023-07-09T08:26:11;37.40;27.20
29431;DHT22;16404;49.902;10.074;2023-07-09T08:28:55;37.60;27.40
29431;DHT22;16404;49.902;10.074;2023-07-09T08:31:40;37.80;26.90
29431;DHT22;16404;49.902;10.074;2023-07-09T08:34:26;37.90;26.50
29431;DHT22;16404;49.902;10.074;2023-07-09T08:37:10;38.10;26.30
29431;DHT22;16404;49.902;10.074;2023-07-09T08:39:54;38.20;26.70
29431;DHT22;16404;49.902;10.074;2023-07-09T08:42:40;38.30;26.80
29431;DHT22;16404;49.902;10.074;2023-07-09T08:45:36;38.50;27.10
29431;DHT22;16404;49.902;10.074;2023-07-09T08:48:32;38.60;25.10
29431;DHT22;16404;49.902;10.074;2023-07-09T08:51:39;38.70;24.40
29431;DHT22;16404;49.902;10.074;2023-07-09T08:54:30;38.80;24.80
29431;DHT22;16404;49.902;10.074;2023-07-09T08:57:32;38.80;25.10
29431;DHT22;16404;49.902;10.074;2023-07-09T09:03:37;39.00;25.00
29431;DHT22;16404;49.902;10.074;2023-07-09T09:06:31;39.40;24.70
29431;DHT22;16404;49.902;10.074;2023-07-09T09:12:21;39.70;23.10
29431;DHT22;16404;49.902;10.074;2023-07-09T09:15:17;39.60;23.20
29431;DHT22;16404;49.902;10.074;2023-07-09T09:18:22;39.80;23.20
29431;DHT22;16404;49.902;10.074;2023-07-09T09:24:29;40.30;23.30
29431;DHT22;16404;49.902;10.074;2023-07-09T09:27:15;40.40;23.40
29431;DHT22;16404;49.902;10.074;2023-07-09T09:29:59;40.60;22.70
29431;DHT22;16404;49.902;10.074;2023-07-09T09:32:54;40.80;22.60
29431;DHT22;16404;49.902;10.074;2023-07-09T09:35:41;40.80;22.30
29431;DHT22;16404;49.902;10.074;2023-07-09T09:38:27;41.00;22.50
29431;DHT22;16404;49.902;10.074;2023-07-09T09:41:13;41.00;22.50
29431;DHT22;16404;49.902;10.074;2023-07-09T09:43:57;41.20;22.80
29431;DHT22;16404;49.902;10.074;2023-07-09T09:46:42;41.30;23.10
29431;DHT22;16404;49.902;10.074;2023-07-09T09:49:26;41.30;22.80
29431;DHT22;16404;49.902;10.074;2023-07-09T09:52:17;41.30;22.80
29431;DHT22;16404;49.902;10.074;2023-07-09T09:55:10;41.30;22.40
29431;DHT22;16404;49.902;10.074;2023-07-09T09:57:55;41.40;22.70
29431;DHT22;16404;49.902;10.074;2023-07-09T10:00:55;41.50;22.10
29431;DHT22;16404;49.902;10.074;2023-07-09T10:03:40;41.40;22.30
29431;DHT22;16404;49.902;10.074;2023-07-09T10:06:52;41.50;22.10
29431;DHT22;16404;49.902;10.074;2023-07-09T10:09:50;41.50;22.20
29431;DHT22;16404;49.902;10.074;2023-07-09T10:12:52;41.70;22.10
29431;DHT22;16404;49.902;10.074;2023-07-09T10:15:58;41.90;21.80
29431;DHT22;16404;49.902;10.074;2023-07-09T10:24:48;42.40;21.10
29431;DHT22;16404;49.902;10.074;2023-07-09T10:28:05;42.30;21.10
29431;DHT22;16404;49.902;10.074;2023-07-09T10:33:53;42.50;21.20
29431;DHT22;16404;49.902;10.074;2023-07-09T10:37:17;42.60;21.50
29431;DHT22;16404;49.902;10.074;2023-07-09T10:40:08;42.80;21.30
29431;DHT22;16404;49.902;10.074;2023-07-09T10:42:57;42.90;21.50
29431;DHT22;16404;49.902;10.074;2023-07-09T10:45:47;42.90;21.20
29431;DHT22;16404;49.902;10.074;2023-07-09T10:48:38;42.90;21.30
29431;DHT22;16404;49.902;10.074;2023-07-09T10:51:31;42.90;20.80
29431;DHT22;16404;49.902;10.074;2023-07-09T10:54:34;42.90;20.90
29431;DHT22;16404;49.902;10.074;2023-07-09T11:00:20;43.00;21.10
29431;DHT22;16404;49.902;10.074;2023-07-09T11:03:18;43.00;21.30
29431;DHT22;16404;49.902;10.074;2023-07-09T11:06:03;42.80;21.50
29431;DHT22;16404;49.902;10.074;2023-07-09T11:08:50;42.80;21.50
29431;DHT22;16404;49.902;10.074;2023-07-09T11:11:43;42.80;21.20
29431;DHT22;16404;49.902;10.074;2023-07-09T11:14:34;42.70;21.20
29431;DHT22;16404;49.902;10.074;2023-07-09T11:17:21;42.60;21.20
29431;DHT22;16404;49.902;10.074;2023-07-09T11:20:14;42.50;21.10
29431;DHT22;16404;49.902;10.074;2023-07-09T11:23:06;42.50;21.10
29431;DHT22;16404;49.902;10.074;2023-07-09T11:26:20;42.30;21.70
29431;DHT22;16404;49.902;10.074;2023-07-09T11:31:49;42.20;21.60
29431;DHT22;16404;49.902;10.074;2023-07-09T11:34:45;42.30;21.50
29431;DHT22;16404;49.902;10.074;2023-07-09T11:37:31;42.20;21.30
29431;DHT22;16404;49.902;10.074;2023-07-09T11:40:16;42.30;21.60
29431;DHT22;16404;49.902;10.074;2023-07-09T11:43:03;42.20;21.60
29431;DHT22;16404;49.902;10.074;2023-07-09T11:45:47;42.20;21.60
29431;DHT22;16404;49.902;10.074;2023-07-09T11:48:33;42.20;21.50
29431;DHT22;16404;49.902;10.074;2023-07-09T11:51:23;42.20;21.50
29431;DHT22;16404;49.902;10.074;2023-07-09T11:54:11;42.10;21.50
29431;DHT22;16404;49.902;10.074;2023-07-09T11:56:58;42.00;21.40
29431;DHT22;16404;49.902;10.074;2023-07-09T11:59:43;41.80;21.10
29431;DHT22;16404;49.902;10.074;2023-07-09T12:02:32;41.70;21.10
29431;DHT22;16404;49.902;10.074;2023-07-09T12:05:22;41.60;21.40
29431;DHT22;16404;49.902;10.074;2023-07-09T12:08:12;41.30;21.90
29431;DHT22;16404;49.902;10.074;2023-07-09T12:10:58;41.10;22.20
29431;DHT22;16404;49.902;10.074;2023-07-09T12:13:43;41.00;21.60
29431;DHT22;16404;49.902;10.074;2023-07-09T12:16:31;40.90;22.20
29431;DHT22;16404;49.902;10.074;2023-07-09T12:19:21;40.80;21.90
29431;DHT22;16404;49.902;10.074;2023-07-09T12:22:09;40.70;21.80
29431;DHT22;16404;49.902;10.074;2023-07-09T12:24:54;40.60;21.70
29431;DHT22;16404;49.902;10.074;2023-07-09T12:27:41;40.50;21.70
29431;DHT22;16404;49.902;10.074;2023-07-09T12:30:31;40.40;21.90
29431;DHT22;16404;49.902;10.074;2023-07-09T12:33:21;40.30;22.10
29431;DHT22;16404;49.902;10.074;2023-07-09T12:36:06;40.30;22.30
29431;DHT22;16404;49.902;10.074;2023-07-09T12:38:51;40.30;22.70
29431;DHT22;16404;49.902;10.074;2023-07-09T12:41:39;40.30;22.70
29431;DHT22;16404;49.902;10.074;2023-07-09T12:44:25;40.20;22.60
29431;DHT22;16404;49.902;10.074;2023-07-09T12:47:13;40.10;22.70
29431;DHT22;16404;49.902;10.074;2023-07-09T12:50:09;40.00;22.70
29431;DHT22;16404;49.902;10.074;2023-07-09T12:53:16;39.90;22.50
29431;DHT22;16404;49.902;10.074;2023-07-09T12:56:01;39.80;22.70
29431;DHT22;16404;49.902;10.074;2023-07-09T12:58:46;39.80;22.70
29431;DHT22;16404;49.902;10.074;2023-07-09T13:01:32;39.80;23.20
29431;DHT22;16404;49.902;10.074;2023-07-09T13:04:17;39.90;23.20
29431;DHT22;16404;49.902;10.074;2023-07-09T13:07:02;39.90;22.80
29431;DHT22;16404;49.902;10.074;2023-07-09T13:09:52;39.80;22.80
29431;DHT22;16404;49.902;10.074;2023-07-09T13:12:39;39.70;22.70
29431;DHT22;16404;49.902;10.074;2023-07-09T13:15:25;39.60;22.90
29431;DHT22;16404;49.902;10.074;2023-07-09T13:18:13;39.70;23.10
29431;DHT22;16404;49.902;10.074;2023-07-09T13:20:58;39.70;22.80
29431;DHT22;16404;49.902;10.074;2023-07-09T13:23:43;39.80;22.80
29431;DHT22;16404;49.902;10.074;2023-07-09T13:26:28;39.80;22.70
29431;DHT22;16404;49.902;10.074;2023-07-09T13:29:17;39.90;22.30
29431;DHT22;16404;49.902;10.074;2023-07-09T13:32:01;39.90;22.10
29431;DHT22;16404;49.902;10.074;2023-07-09T13:34:46;39.90;22.10
29431;DHT22;16404;49.902;10.074;2023-07-09T13:37:30;39.80;21.90
29431;DHT22;16404;49.902;10.074;2023-07-09T13:40:15;39.70;22.30
29431;DHT22;16404;49.902;10.074;2023-07-09T13:43:00;39.70;22.30
29431;DHT22;16404;49.902;10.074;2023-07-09T13:45:44;39.60;22.30
29431;DHT22;16404;49.902;10.074;2023-07-09T13:48:30;39.70;22.40
29431;DHT22;16404;49.902;10.074;2023-07-09T13:51:19;39.60;22.50
29431;DHT22;16404;49.902;10.074;2023-07-09T13:54:17;39.50;22.20
29431;DHT22;16404;49.902;10.074;2023-07-09T13:57:03;39.40;22.30
29431;DHT22;16404;49.902;10.074;2023-07-09T13:59:48;39.40;22.30
29431;DHT22;16404;49.902;10.074;2023-07-09T14:02:33;39.30;22.50
29431;DHT22;16404;49.902;10.074;2023-07-09T14:05:17;39.50;22.50
29431;DHT22;16404;49.902;10.074;2023-07-09T14:08:02;39.50;22.20
29431;DHT22;16404;49.902;10.074;2023-07-09T14:10:47;39.40;21.90
29431;DHT22;16404;49.902;10.074;2023-07-09T14:13:31;39.30;21.80
29431;DHT22;16404;49.902;10.074;2023-07-09T14:16:16;39.40;21.80
29431;DHT22;16404;49.902;10.074;2023-07-09T14:19:00;39.50;21.90
29431;DHT22;16404;49.902;10.074;2023-07-09T14:21:45;39.50;21.60
29431;DHT22;16404;49.902;10.074;2023-07-09T14:24:30;39.60;21.70
29431;DHT22;16404;49.902;10.074;2023-07-09T14:27:14;39.70;21.80
29431;DHT22;16404;49.902;10.074;2023-07-09T14:29:59;39.70;22.00
29431;DHT22;16404;49.902;10.074;2023-07-09T14:32:44;39.60;21.60
29431;DHT22;16404;49.902;10.074;2023-07-09T14:35:28;39.60;21.70
29431;DHT22;16404;49.902;10.074;2023-07-09T14:38:22;39.70;21.80
29431;DHT22;16404;49.902;10.074;2023-07-09T14:41:21;39.70;21.70
29431;DHT22;16404;49.902;10.074;2023-07-09T14:44:25;39.60;21.30
29431;DHT22;16404;49.902;10.074;2023-07-09T14:47:18;39.70;21.50
29431;DHT22;16404;49.902;10.074;2023-07-09T14:50:02;39.70;21.30
29431;DHT22;16404;49.902;10.074;2023-07-09T14:52:48;39.70;21.30
29431;DHT22;16404;49.902;10.074;2023-07-09T14:55:32;39.70;21.10
29431;DHT22;16404;49.902;10.074;2023-07-09T14:58:18;39.70;21.10
29431;DHT22;16404;49.902;10.074;2023-07-09T15:01:02;39.70;21.30
29431;DHT22;16404;49.902;10.074;2023-07-09T15:03:47;39.70;21.00
29431;DHT22;16404;49.902;10.074;2023-07-09T15:06:31;39.70;21.20
29431;DHT22;16404;49.902;10.074;2023-07-09T15:09:25;39.60;21.10
29431;DHT22;16404;49.902;10.074;2023-07-09T15:12:17;39.60;21.30
29431;DHT22;16404;49.902;10.074;2023-07-09T15:15:12;39.60;21.20
29431;DHT22;16404;49.902;10.074;2023-07-09T15:17:59;39.60;20.70
29431;DHT22;16404;49.902;10.074;2023-07-09T15:20:56;39.60;20.70
29431;DHT22;16404;49.902;10.074;2023-07-09T15:23:42;39.60;20.80
29431;DHT22;16404;49.902;10.074;2023-07-09T15:26:28;39.60;20.60
29431;DHT22;16404;49.902;10.074;2023-07-09T15:29:13;39.60;20.60
29431;DHT22;16404;49.902;10.074;2023-07-09T15:31:59;39.70;20.70
29431;DHT22;16404;49.902;10.074;2023-07-09T15:34:43;39.70;20.40
29431;DHT22;16404;49.902;10.074;2023-07-09T15:37:27;39.70;20.40
29431;DHT22;16404;49.902;10.074;2023-07-09T15:40:21;39.70;20.50
29431;DHT22;16404;49.902;10.074;2023-07-09T15:43:07;39.70;20.30
29431;DHT22;16404;49.902;10.074;2023-07-09T15:45:54;39.70;20.20
29431;DHT22;16404;49.902;10.074;2023-07-09T15:48:40;39.60;20.00
29431;DHT22;16404;49.902;10.074;2023-07-09T15:51:24;39.60;20.30
29431;DHT22;16404;49.902;10.074;2023-07-09T15:54:19;39.60;20.40
29431;DHT22;16404;49.902;10.074;2023-07-09T15:57:04;39.50;20.50
29431;DHT22;16404;49.902;10.074;2023-07-09T15:59:48;39.50;21.30
29431;DHT22;16404;49.902;10.074;2023-07-09T16:02:33;39.50;20.40
29431;DHT22;16404;49.902;10.074;2023-07-09T16:08:01;39.50;20.70
29431;DHT22;16404;49.902;10.074;2023-07-09T16:10:46;39.50;20.50
29431;DHT22;16404;49.902;10.074;2023-07-09T16:13:30;39.60;20.70
29431;DHT22;16404;49.902;10.074;2023-07-09T16:16:16;39.60;20.60
29431;DHT22;16404;49.902;10.074;2023-07-09T16:19:03;39.40;21.00
29431;DHT22;16404;49.902;10.074;2023-07-09T16:21:54;39.30;20.90
29431;DHT22;16404;49.902;10.074;2023-07-09T16:24:38;39.40;21.50
29431;DHT22;16404;49.902;10.074;2023-07-09T16:27:23;39.50;21.60
29431;DHT22;16404;49.902;10.074;2023-07-09T16:30:15;39.60;21.40
29431;DHT22;16404;49.902;10.074;2023-07-09T16:33:00;39.70;21.30
29431;DHT22;16404;49.902;10.074;2023-07-09T16:35:47;39.70;21.20
29431;DHT22;16404;49.902;10.074;2023-07-09T16:38:33;39.70;21.50
29431;DHT22;16404;49.902;10.074;2023-07-09T16:41:19;39.70;21.10
29431;DHT22;16404;49.902;10.074;2023-07-09T16:44:10;39.70;20.80
29431;DHT22;16404;49.902;10.074;2023-07-09T16:46:55;39.70;21.30
29431;DHT22;16404;49.902;10.074;2023-07-09T16:49:40;39.80;21.00
29431;DHT22;16404;49.902;10.074;2023-07-09T16:52:27;39.80;20.80
29431;DHT22;16404;49.902;10.074;2023-07-09T16:55:16;39.80;21.30
29431;DHT22;16404;49.902;10.074;2023-07-09T16:58:02;39.80;21.30
29431;DHT22;16404;49.902;10.074;2023-07-09T17:00:46;39.80;20.70
29431;DHT22;16404;49.902;10.074;2023-07-09T17:03:30;39.80;20.90
29431;DHT22;16404;49.902;10.074;2023-07-09T17:06:15;39.80;20.70
29431;DHT22;16404;49.902;10.074;2023-07-09T17:08:59;39.70;21.30
29431;DHT22;16404;49.902;10.074;2023-07-09T17:11:44;39.70;21.00
29431;DHT22;16404;49.902;10.074;2023-07-09T17:14:29;39.70;21.40
29431;DHT22;16404;49.902;10.074;2023-07-09T17:17:14;39.70;21.50
29431;DHT22;16404;49.902;10.074;2023-07-09T17:20:00;39.70;21.60
29431;DHT22;16404;49.902;10.074;2023-07-09T17:22:45;39.70;22.00
29431;DHT22;16404;49.902;10.074;2023-07-09T17:25:32;39.70;22.80
29431;DHT22;16404;49.902;10.074;2023-07-09T17:28:25;39.60;22.70
29431;DHT22;16404;49.902;10.074;2023-07-09T17:31:11;39.60;23.10
29431;DHT22;16404;49.902;10.074;2023-07-09T17:33:56;39.50;23.00
29431;DHT22;16404;49.902;10.074;2023-07-09T17:36:41;39.50;23.00
29431;DHT22;16404;49.902;10.074;2023-07-09T17:39:26;39.50;22.10
29431;DHT22;16404;49.902;10.074;2023-07-09T17:42:14;39.50;22.80
29431;DHT22;16404;49.902;10.074;2023-07-09T17:44:59;39.60;22.80